sensor_id;sensor_type;location;lat;lon;timestamp;temperature;humidity
51655;DHT22;37732;53.106;7.030;2022-09-21T00:00:38;7.80;99.90
51655;DHT22;37732;53.106;7.030;2022-09-21T00:03:04;7.90;99.90
51655;DHT22;37732;53.106;7.030;2022-09-21T00:05:31;7.80;99.90
51655;DHT22;37732;53.106;7.030;2022-09-21T00:08:09;7.80;99.90
51655;DHT22;37732;53.106;7.030;2022-09-21T00:10:35;7.80;99.90
51655;DHT22;37732;53.106;7.030;2022-09-21T00:13:01;7.80;99.90
51655;DHT22;37732;53.106;7.030;2022-09-21T00:15:28;7.80;99.90
51655;DHT22;37732;53.106;7.030;2022-09-21T00:17:55;7.70;99.90
51655;DHT22;37732;53.106;7.030;2022-09-21T00:20:23;7.70;99.90
51655;DHT22;37732;53.106;7.030;2022-09-21T00:22:50;7.70;99.90
51655;DHT22;37732;53.106;7.030;2022-09-21T00:25:16;7.60;99.90
51655;DHT22;37732;53.106;7.030;2022-09-21T00:27:42;7.60;99.90
51655;DHT22;37732;53.106;7.030;2022-09-21T00:30:09;7.50;99.90
51655;DHT22;37732;53.106;7.030;2022-09-21T00:32:37;7.50;99.90
51655;DHT22;37732;53.106;7.030;2022-09-21T00:35:04;7.50;99.90
51655;DHT22;37732;53.106;7.030;2022-09-21T00:37:32;7.50;99.90
51655;DHT22;37732;53.106;7.030;2022-09-21T00:39:58;7.50;99.90
51655;DHT22;37732;53.106;7.030;2022-09-21T00:42:29;7.40;99.90
51655;DHT22;37732;53.106;7.030;2022-09-21T00:44:56;7.40;99.90
51655;DHT22;37732;53.106;7.030;2022-09-21T00:47:37;7.40;99.90
51655;DHT22;37732;53.106;7.030;2022-09-21T00:50:11;7.40;99.90
51655;DHT22;37732;53.106;7.030;2022-09-21T00:52:42;7.30;99.90
51655;DHT22;37732;53.106;7.030;2022-09-21T00:55:14;7.40;99.90
51655;DHT22;37732;53.106;7.030;2022-09-21T00:57:47;7.40;99.90
51655;DHT22;37732;53.106;7.030;2022-09-21T01:00:14;7.40;99.90
51655;DHT22;37732;53.106;7.030;2022-09-21T01:02:40;7.30;99.90
51655;DHT22;37732;53.106;7.030;2022-09-21T01:05:08;7.30;99.90
51655;DHT22;37732;53.106;7.030;2022-09-21T01:07:41;7.30;99.90
51655;DHT22;37732;53.106;7.030;2022-09-21T01:10:10;7.30;99.90
51655;DHT22;37732;53.106;7.030;2022-09-21T01:12:52;7.20;99.90
51655;DHT22;37732;53.106;7.030;2022-09-21T01:18:24;7.20;99.90
51655;DHT22;37732;53.106;7.030;2022-09-21T01:29:43;7.10;99.90
51655;DHT22;37732;53.106;7.030;2022-09-21T01:32:17;7.00;99.90
51655;DHT22;37732;53.106;7.030;2022-09-21T01:37:46;7.00;99.90
51655;DHT22;37732;53.106;7.030;2022-09-21T01:40:20;7.00;99.90
51655;DHT22;37732;53.106;7.030;2022-09-21T01:42:48;6.90;99.90
51655;DHT22;37732;53.106;7.030;2022-09-21T01:45:18;6.90;99.90
51655;DHT22;37732;53.106;7.030;2022-09-21T01:47:48;6.90;99.90
51655;DHT22;37732;53.106;7.030;2022-09-21T01:50:16;6.90;99.90
51655;DHT22;37732;53.106;7.030;2022-09-21T01:53:01;6.80;99.90
51655;DHT22;37732;53.106;7.030;2022-09-21T01:55:46;6.80;99.90
51655;DHT22;37732;53.106;7.030;2022-09-21T02:00:55;6.80;99.90
51655;DHT22;37732;53.106;7.030;2022-09-21T02:03:43;6.80;99.90
51655;DHT22;37732;53.106;7.030;2022-09-21T02:06:10;6.80;99.90
51655;DHT22;37732;53.106;7.030;2022-09-21T02:08:38;6.70;99.90
51655;DHT22;37732;53.106;7.030;2022-09-21T02:11:05;6.70;99.90
51655;DHT22;37732;53.106;7.030;2022-09-21T02:13:34;6.70;99.90
51655;DHT22;37732;53.106;7.030;2022-09-21T02:21:34;6.60;99.90
51655;DHT22;37732;53.106;7.030;2022-09-21T02:24:13;6.50;99.90
51655;DHT22;37732;53.106;7.030;2022-09-21T02:27:24;6.50;99.90
51655;DHT22;37732;53.106;7.030;2022-09-21T02:32:40;6.50;99.90
51655;DHT22;37732;53.106;7.030;2022-09-21T02:35:20;7.60;99.90
51655;DHT22;37732;53.106;7.030;2022-09-21T02:38:02;6.50;99.90
51655;DHT22;37732;53.106;7.030;2022-09-21T02:41:10;5.90;99.90
51655;DHT22;37732;53.106;7.030;2022-09-21T02:46:23;7.80;99.90
51655;DHT22;37732;53.106;7.030;2022-09-21T02:49:17;6.40;99.90
51655;DHT22;37732;53.106;7.030;2022-09-21T02:51:47;6.40;99.90
51655;DHT22;37732;53.106;7.030;2022-09-21T02:54:19;6.40;99.90
51655;DHT22;37732;53.106;7.030;2022-09-21T02:56:47;6.40;99.90
51655;DHT22;37732;53.106;7.030;2022-09-21T02:59:14;6.40;99.90
51655;DHT22;37732;53.106;7.030;2022-09-21T03:01:41;6.40;99.90
51655;DHT22;37732;53.106;7.030;2022-09-21T03:04:07;6.40;99.90
51655;DHT22;37732;53.106;7.030;2022-09-21T03:06:33;6.40;99.90
51655;DHT22;37732;53.106;7.030;2022-09-21T03:08:59;7.30;99.90
51655;DHT22;37732;53.106;7.030;2022-09-21T03:11:25;6.10;99.90
51655;DHT22;37732;53.106;7.030;2022-09-21T03:13:51;6.40;99.90
51655;DHT22;37732;53.106;7.030;2022-09-21T03:16:16;6.40;99.90
51655;DHT22;37732;53.106;7.030;2022-09-21T03:18:42;6.40;99.90
51655;DHT22;37732;53.106;7.030;2022-09-21T03:21:10;7.00;99.90
51655;DHT22;37732;53.106;7.030;2022-09-21T03:23:36;8.00;99.90
51655;DHT22;37732;53.106;7.030;2022-09-21T03:26:03;6.40;99.90
51655;DHT22;37732;53.106;7.030;2022-09-21T03:28:28;6.30;99.90
51655;DHT22;37732;53.106;7.030;2022-09-21T03:30:54;6.20;99.90
51655;DHT22;37732;53.106;7.030;2022-09-21T03:33:20;6.40;99.90
51655;DHT22;37732;53.106;7.030;2022-09-21T03:35:49;6.20;99.90
51655;DHT22;37732;53.106;7.030;2022-09-21T03:38:16;6.30;99.90
51655;DHT22;37732;53.106;7.030;2022-09-21T03:40:46;6.10;99.90
51655;DHT22;37732;53.106;7.030;2022-09-21T03:43:12;6.10;99.90
51655;DHT22;37732;53.106;7.030;2022-09-21T03:45:39;6.20;99.90
51655;DHT22;37732;53.106;7.030;2022-09-21T03:48:08;6.10;99.90
51655;DHT22;37732;53.106;7.030;2022-09-21T03:50:34;6.30;99.90
51655;DHT22;37732;53.106;7.030;2022-09-21T03:53:00;6.10;99.90
51655;DHT22;37732;53.106;7.030;2022-09-21T03:55:26;6.40;99.90
51655;DHT22;37732;53.106;7.030;2022-09-21T03:57:52;6.10;99.90
51655;DHT22;37732;53.106;7.030;2022-09-21T04:00:18;6.00;99.90
51655;DHT22;37732;53.106;7.030;2022-09-21T04:02:44;6.10;99.90
51655;DHT22;37732;53.106;7.030;2022-09-21T04:05:12;7.10;99.90
51655;DHT22;37732;53.106;7.030;2022-09-21T04:07:40;6.00;99.90
51655;DHT22;37732;53.106;7.030;2022-09-21T04:10:08;6.00;99.90
51655;DHT22;37732;53.106;7.030;2022-09-21T04:12:37;6.00;99.90
51655;DHT22;37732;53.106;7.030;2022-09-21T04:15:04;6.00;99.90
51655;DHT22;37732;53.106;7.030;2022-09-21T04:17:34;6.00;99.90
51655;DHT22;37732;53.106;7.030;2022-09-21T04:20:00;6.10;99.90
51655;DHT22;37732;53.106;7.030;2022-09-21T04:22:26;6.00;99.90
51655;DHT22;37732;53.106;7.030;2022-09-21T04:24:52;5.60;99.90
51655;DHT22;37732;53.106;7.030;2022-09-21T04:27:18;7.00;99.90
51655;DHT22;37732;53.106;7.030;2022-09-21T04:29:44;6.50;99.90
51655;DHT22;37732;53.106;7.030;2022-09-21T04:32:10;6.20;99.90
51655;DHT22;37732;53.106;7.030;2022-09-21T04:34:36;5.80;99.90
51655;DHT22;37732;53.106;7.030;2022-09-21T04:37:04;6.70;99.90
51655;DHT22;37732;53.106;7.030;2022-09-21T04:39:32;5.90;99.90
51655;DHT22;37732;53.106;7.030;2022-09-21T04:41:57;6.00;99.90
51655;DHT22;37732;53.106;7.030;2022-09-21T04:44:23;7.40;99.90
51655;DHT22;37732;53.106;7.030;2022-09-21T04:46:49;6.20;99.90
51655;DHT22;37732;53.106;7.030;2022-09-21T04:49:14;7.70;99.90
51655;DHT22;37732;53.106;7.030;2022-09-21T04:51:40;6.10;99.90
51655;DHT22;37732;53.106;7.030;2022-09-21T04:54:06;5.40;99.90
51655;DHT22;37732;53.106;7.030;2022-09-21T04:56:32;6.90;99.90
51655;DHT22;37732;53.106;7.030;2022-09-21T04:58:58;5.70;99.90
51655;DHT22;37732;53.106;7.030;2022-09-21T05:01:23;5.70;99.90
51655;DHT22;37732;53.106;7.030;2022-09-21T05:03:49;5.30;99.90
51655;DHT22;37732;53.106;7.030;2022-09-21T05:06:15;5.60;99.90
51655;DHT22;37732;53.106;7.030;2022-09-21T05:08:40;5.60;99.90
51655;DHT22;37732;53.106;7.030;2022-09-21T05:11:25;5.20;99.90
51655;DHT22;37732;53.106;7.030;2022-09-21T05:13:51;5.60;99.90
51655;DHT22;37732;53.106;7.030;2022-09-21T05:16:17;6.00;99.90
51655;DHT22;37732;53.106;7.030;2022-09-21T05:18:44;5.60;99.90
51655;DHT22;37732;53.106;7.030;2022-09-21T05:21:13;5.50;99.90
51655;DHT22;37732;53.106;7.030;2022-09-21T05:23:39;5.50;99.90
51655;DHT22;37732;53.106;7.030;2022-09-21T05:26:06;6.10;99.90
51655;DHT22;37732;53.106;7.030;2022-09-21T05:28:32;5.50;99.90
51655;DHT22;37732;53.106;7.030;2022-09-21T05:33:28;5.50;99.90
51655;DHT22;37732;53.106;7.030;2022-09-21T05:38:33;6.40;99.90
51655;DHT22;37732;53.106;7.030;2022-09-21T05:40:59;5.50;99.90
51655;DHT22;37732;53.106;7.030;2022-09-21T05:43:26;5.60;99.90
51655;DHT22;37732;53.106;7.030;2022-09-21T05:45:57;5.50;99.90
51655;DHT22;37732;53.106;7.030;2022-09-21T05:48:32;5.50;99.90
51655;DHT22;37732;53.106;7.030;2022-09-21T05:56:18;5.60;99.90
51655;DHT22;37732;53.106;7.030;2022-09-21T06:05:09;5.60;99.90
51655;DHT22;37732;53.106;7.030;2022-09-21T06:07:36;5.60;99.90
51655;DHT22;37732;53.106;7.030;2022-09-21T06:10:10;6.80;99.90
51655;DHT22;37732;53.106;7.030;2022-09-21T06:12:36;6.60;99.90
51655;DHT22;37732;53.106;7.030;2022-09-21T06:15:04;5.70;99.90
51655;DHT22;37732;53.106;7.030;2022-09-21T06:17:31;5.70;99.90
51655;DHT22;37732;53.106;7.030;2022-09-21T06:19:57;5.90;99.90
51655;DHT22;37732;53.106;7.030;2022-09-21T06:22:23;7.00;99.90
51655;DHT22;37732;53.106;7.030;2022-09-21T06:24:49;6.10;99.90
51655;DHT22;37732;53.106;7.030;2022-09-21T06:27:14;7.60;99.90
51655;DHT22;37732;53.106;7.030;2022-09-21T06:29:49;6.60;99.90
51655;DHT22;37732;53.106;7.030;2022-09-21T06:32:17;8.20;99.90
51655;DHT22;37732;53.106;7.030;2022-09-21T06:34:43;7.10;99.90
51655;DHT22;37732;53.106;7.030;2022-09-21T06:37:09;7.00;99.90
51655;DHT22;37732;53.106;7.030;2022-09-21T06:39:35;7.30;99.90
51655;DHT22;37732;53.106;7.030;2022-09-21T06:42:00;8.30;99.90
51655;DHT22;37732;53.106;7.030;2022-09-21T06:44:26;7.80;99.90
51655;DHT22;37732;53.106;7.030;2022-09-21T06:46:54;9.60;99.90
51655;DHT22;37732;53.106;7.030;2022-09-21T06:49:20;8.30;99.90
51655;DHT22;37732;53.106;7.030;2022-09-21T06:51:49;8.50;99.90
51655;DHT22;37732;53.106;7.030;2022-09-21T06:54:15;8.70;99.90
51655;DHT22;37732;53.106;7.030;2022-09-21T06:56:43;9.00;99.90
51655;DHT22;37732;53.106;7.030;2022-09-21T06:59:08;9.60;99.90
51655;DHT22;37732;53.106;7.030;2022-09-21T07:01:34;10.20;99.90
51655;DHT22;37732;53.106;7.030;2022-09-21T07:04:03;9.90;99.90
51655;DHT22;37732;53.106;7.030;2022-09-21T07:06:28;10.30;99.90
51655;DHT22;37732;53.106;7.030;2022-09-21T07:08:54;11.30;99.90
51655;DHT22;37732;53.106;7.030;2022-09-21T07:11:20;10.70;99.90
51655;DHT22;37732;53.106;7.030;2022-09-21T07:13:49;11.20;99.90
51655;DHT22;37732;53.106;7.030;2022-09-21T07:16:18;10.90;99.90
51655;DHT22;37732;53.106;7.030;2022-09-21T07:18:44;11.10;99.90
51655;DHT22;37732;53.106;7.030;2022-09-21T07:21:10;11.30;99.90
51655;DHT22;37732;53.106;7.030;2022-09-21T07:23:40;11.60;99.90
51655;DHT22;37732;53.106;7.030;2022-09-21T07:26:10;11.90;99.90
51655;DHT22;37732;53.106;7.030;2022-09-21T07:28:35;12.70;99.90
51655;DHT22;37732;53.106;7.030;2022-09-21T07:31:19;12.40;99.90
51655;DHT22;37732;53.106;7.030;2022-09-21T07:33:45;13.80;99.90
51655;DHT22;37732;53.106;7.030;2022-09-21T07:36:12;14.10;99.90
51655;DHT22;37732;53.106;7.030;2022-09-21T07:38:42;13.10;99.90
51655;DHT22;37732;53.106;7.030;2022-09-21T07:41:10;13.20;99.90
51655;DHT22;37732;53.106;7.030;2022-09-21T07:43:36;13.30;99.90
51655;DHT22;37732;53.106;7.030;2022-09-21T07:46:04;13.50;99.90
51655;DHT22;37732;53.106;7.030;2022-09-21T07:48:30;13.70;99.90
51655;DHT22;37732;53.106;7.030;2022-09-21T07:51:03;13.90;99.90
51655;DHT22;37732;53.106;7.030;2022-09-21T07:53:37;14.00;99.90
51655;DHT22;37732;53.106;7.030;2022-09-21T07:58:30;14.40;99.90
51655;DHT22;37732;53.106;7.030;2022-09-21T08:01:14;14.50;99.90
51655;DHT22;37732;53.106;7.030;2022-09-21T08:03:40;14.80;99.90
51655;DHT22;37732;53.106;7.030;2022-09-21T08:06:07;15.10;99.90
51655;DHT22;37732;53.106;7.030;2022-09-21T08:13:30;15.70;99.90
51655;DHT22;37732;53.106;7.030;2022-09-21T08:16:01;15.80;99.90
51655;DHT22;37732;53.106;7.030;2022-09-21T08:18:27;15.60;99.90
51655;DHT22;37732;53.106;7.030;2022-09-21T08:20:58;15.50;99.90
51655;DHT22;37732;53.106;7.030;2022-09-21T08:23:25;15.70;99.90
51655;DHT22;37732;53.106;7.030;2022-09-21T08:26:03;16.00;99.90
51655;DHT22;37732;53.106;7.030;2022-09-21T08:28:34;16.10;99.90
51655;DHT22;37732;53.106;7.030;2022-09-21T08:31:04;16.00;99.90
51655;DHT22;37732;53.106;7.030;2022-09-21T08:33:30;16.00;99.90
51655;DHT22;37732;53.106;7.030;2022-09-21T08:36:07;16.00;99.90
51655;DHT22;37732;53.106;7.030;2022-09-21T08:38:35;16.10;99.90
51655;DHT22;37732;53.106;7.030;2022-09-21T08:41:18;16.80;99.90
51655;DHT22;37732;53.106;7.030;2022-09-21T08:43:49;16.30;99.90
51655;DHT22;37732;53.106;7.030;2022-09-21T08:46:27;16.40;99.90
51655;DHT22;37732;53.106;7.030;2022-09-21T08:49:04;16.50;99.90
51655;DHT22;37732;53.106;7.030;2022-09-21T08:51:44;16.70;99.90
51655;DHT22;37732;53.106;7.030;2022-09-21T08:56:56;16.50;99.90
51655;DHT22;37732;53.106;7.030;2022-09-21T08:59:22;16.40;99.90
51655;DHT22;37732;53.106;7.030;2022-09-21T09:20:55;16.80;99.90
51655;DHT22;37732;53.106;7.030;2022-09-21T09:23:47;16.90;99.90
51655;DHT22;37732;53.106;7.030;2022-09-21T09:26:27;17.20;99.90
51655;DHT22;37732;53.106;7.030;2022-09-21T09:29:01;17.20;99.90
51655;DHT22;37732;53.106;7.030;2022-09-21T09:31:34;17.20;99.90
51655;DHT22;37732;53.106;7.030;2022-09-21T09:36:29;17.50;99.90
51655;DHT22;37732;53.106;7.030;2022-09-21T09:39:00;17.60;99.90
51655;DHT22;37732;53.106;7.030;2022-09-21T09:52:27;17.60;99.90
51655;DHT22;37732;53.106;7.030;2022-09-21T09:54:53;17.50;99.90
51655;DHT22;37732;53.106;7.030;2022-09-21T09:57:28;17.50;99.90
51655;DHT22;37732;53.106;7.030;2022-09-21T09:59:59;17.70;99.90
51655;DHT22;37732;53.106;7.030;2022-09-21T10:02:27;17.90;99.90
51655;DHT22;37732;53.106;7.030;2022-09-21T10:04:58;18.10;99.90
51655;DHT22;37732;53.106;7.030;2022-09-21T10:07:42;18.10;99.90
51655;DHT22;37732;53.106;7.030;2022-09-21T10:18:48;18.50;99.20
51655;DHT22;37732;53.106;7.030;2022-09-21T10:21:21;18.70;99.60
51655;DHT22;37732;53.106;7.030;2022-09-21T10:23:50;18.90;99.90
51655;DHT22;37732;53.106;7.030;2022-09-21T10:26:18;19.20;99.60
51655;DHT22;37732;53.106;7.030;2022-09-21T10:28:56;19.40;99.90
51655;DHT22;37732;53.106;7.030;2022-09-21T10:31:27;19.40;99.30
51655;DHT22;37732;53.106;7.030;2022-09-21T10:34:12;19.50;98.60
51655;DHT22;37732;53.106;7.030;2022-09-21T10:36:38;19.40;98.30
51655;DHT22;37732;53.106;7.030;2022-09-21T10:42:11;19.10;99.20
51655;DHT22;37732;53.106;7.030;2022-09-21T10:44:53;19.10;98.90
51655;DHT22;37732;53.106;7.030;2022-09-21T10:47:49;19.00;99.90
51655;DHT22;37732;53.106;7.030;2022-09-21T10:56:16;19.10;97.90
51655;DHT22;37732;53.106;7.030;2022-09-21T11:01:35;19.30;97.80
51655;DHT22;37732;53.106;7.030;2022-09-21T11:04:44;19.30;95.30
51655;DHT22;37732;53.106;7.030;2022-09-21T11:07:26;19.20;92.40
51655;DHT22;37732;53.106;7.030;2022-09-21T11:20:53;19.60;95.30
51655;DHT22;37732;53.106;7.030;2022-09-21T11:23:40;19.90;96.30
51655;DHT22;37732;53.106;7.030;2022-09-21T11:31:55;20.20;94.20
51655;DHT22;37732;53.106;7.030;2022-09-21T12:20:18;20.70;85.40
51655;DHT22;37732;53.106;7.030;2022-09-21T12:22:47;20.70;79.90
51655;DHT22;37732;53.106;7.030;2022-09-21T12:25:27;20.50;82.50
51655;DHT22;37732;53.106;7.030;2022-09-21T12:30:41;20.60;85.50
51655;DHT22;37732;53.106;7.030;2022-09-21T12:33:40;20.70;89.00
51655;DHT22;37732;53.106;7.030;2022-09-21T12:36:17;20.90;90.50
51655;DHT22;37732;53.106;7.030;2022-09-21T12:39:08;21.10;88.40
51655;DHT22;37732;53.106;7.030;2022-09-21T12:41:43;21.10;83.30
51655;DHT22;37732;53.106;7.030;2022-09-21T12:47:09;20.70;84.70
51655;DHT22;37732;53.106;7.030;2022-09-21T12:49:46;20.80;86.80
51655;DHT22;37732;53.106;7.030;2022-09-21T12:52:22;20.90;86.90
51655;DHT22;37732;53.106;7.030;2022-09-21T12:58:22;20.90;80.90
51655;DHT22;37732;53.106;7.030;2022-09-21T13:09:05;20.80;76.20
51655;DHT22;37732;53.106;7.030;2022-09-21T13:11:34;20.70;80.00
51655;DHT22;37732;53.106;7.030;2022-09-21T13:14:02;20.40;75.70
51655;DHT22;37732;53.106;7.030;2022-09-21T13:16:34;20.20;75.80
51655;DHT22;37732;53.106;7.030;2022-09-21T13:21:30;20.30;82.80
51655;DHT22;37732;53.106;7.030;2022-09-21T13:24:05;20.40;84.70
51655;DHT22;37732;53.106;7.030;2022-09-21T13:26:52;20.60;84.20
51655;DHT22;37732;53.106;7.030;2022-09-21T13:31:58;20.70;81.20
51655;DHT22;37732;53.106;7.030;2022-09-21T13:34:38;20.90;79.20
51655;DHT22;37732;53.106;7.030;2022-09-21T13:47:40;21.20;78.70
51655;DHT22;37732;53.106;7.030;2022-09-21T13:50:13;21.00;78.60
51655;DHT22;37732;53.106;7.030;2022-09-21T13:52:45;21.10;79.90
51655;DHT22;37732;53.106;7.030;2022-09-21T13:57:50;21.20;81.90
51655;DHT22;37732;53.106;7.030;2022-09-21T14:10:49;21.30;79.10
51655;DHT22;37732;53.106;7.030;2022-09-21T14:13:35;21.30;77.90
51655;DHT22;37732;53.106;7.030;2022-09-21T14:19:02;21.00;81.70
51655;DHT22;37732;53.106;7.030;2022-09-21T14:21:29;21.00;81.90
51655;DHT22;37732;53.106;7.030;2022-09-21T14:24:18;21.00;82.20
51655;DHT22;37732;53.106;7.030;2022-09-21T14:26:46;21.00;79.90
51655;DHT22;37732;53.106;7.030;2022-09-21T14:29:46;20.90;83.50
51655;DHT22;37732;53.106;7.030;2022-09-21T14:32:21;21.00;83.00
51655;DHT22;37732;53.106;7.030;2022-09-21T14:34:50;21.00;80.60
51655;DHT22;37732;53.106;7.030;2022-09-21T14:37:33;21.00;81.60
51655;DHT22;37732;53.106;7.030;2022-09-21T14:40:05;21.00;81.50
51655;DHT22;37732;53.106;7.030;2022-09-21T14:42:31;21.00;78.20
51655;DHT22;37732;53.106;7.030;2022-09-21T14:44:58;20.90;79.50
51655;DHT22;37732;53.106;7.030;2022-09-21T15:04:02;20.90;81.10
51655;DHT22;37732;53.106;7.030;2022-09-21T15:06:57;20.80;79.90
51655;DHT22;37732;53.106;7.030;2022-09-21T15:10:00;20.90;79.70
51655;DHT22;37732;53.106;7.030;2022-09-21T15:13:00;20.90;81.50
51655;DHT22;37732;53.106;7.030;2022-09-21T15:15:39;20.90;83.90
51655;DHT22;37732;53.106;7.030;2022-09-21T15:18:21;20.90;76.70
51655;DHT22;37732;53.106;7.030;2022-09-21T15:21:24;20.80;77.80
51655;DHT22;37732;53.106;7.030;2022-09-21T15:23:51;20.80;75.30
51655;DHT22;37732;53.106;7.030;2022-09-21T15:28:53;20.60;77.60
51655;DHT22;37732;53.106;7.030;2022-09-21T15:31:19;20.40;72.40
51655;DHT22;37732;53.106;7.030;2022-09-21T15:33:45;20.20;75.90
51655;DHT22;37732;53.106;7.030;2022-09-21T15:36:22;20.10;77.90
51655;DHT22;37732;53.106;7.030;2022-09-21T15:38:50;20.10;77.90
51655;DHT22;37732;53.106;7.030;2022-09-21T15:41:37;19.90;79.20
51655;DHT22;37732;53.106;7.030;2022-09-21T15:44:16;19.90;78.30
51655;DHT22;37732;53.106;7.030;2022-09-21T15:46:45;19.90;85.10
51655;DHT22;37732;53.106;7.030;2022-09-21T15:49:17;19.90;86.80
51655;DHT22;37732;53.106;7.030;2022-09-21T15:54:29;19.60;78.60
51655;DHT22;37732;53.106;7.030;2022-09-21T15:57:01;19.40;74.10
51655;DHT22;37732;53.106;7.030;2022-09-21T15:59:28;19.30;76.40
51655;DHT22;37732;53.106;7.030;2022-09-21T16:01:58;19.30;82.60
51655;DHT22;37732;53.106;7.030;2022-09-21T16:04:26;19.30;83.90
51655;DHT22;37732;53.106;7.030;2022-09-21T16:07:06;19.30;85.90
51655;DHT22;37732;53.106;7.030;2022-09-21T16:09:46;19.20;84.90
51655;DHT22;37732;53.106;7.030;2022-09-21T16:12:41;19.20;86.70
51655;DHT22;37732;53.106;7.030;2022-09-21T16:15:15;19.10;83.60
51655;DHT22;37732;53.106;7.030;2022-09-21T16:18:04;19.00;85.00
51655;DHT22;37732;53.106;7.030;2022-09-21T16:20:51;18.90;84.70
51655;DHT22;37732;53.106;7.030;2022-09-21T16:23:20;18.80;87.50
51655;DHT22;37732;53.106;7.030;2022-09-21T16:25:54;18.70;89.80
51655;DHT22;37732;53.106;7.030;2022-09-21T16:30:51;18.50;90.50
51655;DHT22;37732;53.106;7.030;2022-09-21T16:36:32;18.30;91.90
51655;DHT22;37732;53.106;7.030;2022-09-21T16:38:59;18.30;92.40
51655;DHT22;37732;53.106;7.030;2022-09-21T16:41:50;18.10;92.60
51655;DHT22;37732;53.106;7.030;2022-09-21T16:44:21;18.00;93.00
51655;DHT22;37732;53.106;7.030;2022-09-21T16:47:00;17.80;93.90
51655;DHT22;37732;53.106;7.030;2022-09-21T16:49:28;17.60;94.20
51655;DHT22;37732;53.106;7.030;2022-09-21T16:51:56;17.50;95.20
51655;DHT22;37732;53.106;7.030;2022-09-21T16:54:22;17.40;95.50
51655;DHT22;37732;53.106;7.030;2022-09-21T16:56:53;17.30;96.00
51655;DHT22;37732;53.106;7.030;2022-09-21T16:59:20;17.20;96.10
51655;DHT22;37732;53.106;7.030;2022-09-21T17:01:52;17.20;96.30
51655;DHT22;37732;53.106;7.030;2022-09-21T17:04:20;17.10;96.60
51655;DHT22;37732;53.106;7.030;2022-09-21T17:06:50;17.00;97.00
51655;DHT22;37732;53.106;7.030;2022-09-21T17:09:22;16.80;97.20
51655;DHT22;37732;53.106;7.030;2022-09-21T17:11:49;16.70;97.30
51655;DHT22;37732;53.106;7.030;2022-09-21T17:14:17;16.60;97.20
51655;DHT22;37732;53.106;7.030;2022-09-21T17:16:55;16.50;97.50
51655;DHT22;37732;53.106;7.030;2022-09-21T17:19:22;16.40;97.50
51655;DHT22;37732;53.106;7.030;2022-09-21T17:21:48;16.30;97.70
51655;DHT22;37732;53.106;7.030;2022-09-21T17:24:14;16.30;98.00
51655;DHT22;37732;53.106;7.030;2022-09-21T17:26:42;16.20;98.30
51655;DHT22;37732;53.106;7.030;2022-09-21T17:29:22;16.30;99.10
51655;DHT22;37732;53.106;7.030;2022-09-21T17:32:32;15.90;99.50
51655;DHT22;37732;53.106;7.030;2022-09-21T17:35:16;15.80;99.80
51655;DHT22;37732;53.106;7.030;2022-09-21T17:37:43;15.70;99.90
51655;DHT22;37732;53.106;7.030;2022-09-21T17:40:09;15.50;99.90
51655;DHT22;37732;53.106;7.030;2022-09-21T17:42:39;15.50;99.90
51655;DHT22;37732;53.106;7.030;2022-09-21T17:47:50;15.30;99.90
51655;DHT22;37732;53.106;7.030;2022-09-21T17:50:20;15.10;99.90
51655;DHT22;37732;53.106;7.030;2022-09-21T17:52:48;15.00;99.90
51655;DHT22;37732;53.106;7.030;2022-09-21T17:55:33;14.90;99.90
51655;DHT22;37732;53.106;7.030;2022-09-21T18:03:31;14.70;99.90
51655;DHT22;37732;53.106;7.030;2022-09-21T18:06:00;14.60;99.90
51655;DHT22;37732;53.106;7.030;2022-09-21T18:08:28;14.50;99.90
51655;DHT22;37732;53.106;7.030;2022-09-21T18:16:33;14.20;99.90
51655;DHT22;37732;53.106;7.030;2022-09-21T18:21:57;14.00;99.90
51655;DHT22;37732;53.106;7.030;2022-09-21T18:24:27;13.90;99.90
51655;DHT22;37732;53.106;7.030;2022-09-21T18:26:53;13.80;99.90
51655;DHT22;37732;53.106;7.030;2022-09-21T18:29:29;13.80;99.90
51655;DHT22;37732;53.106;7.030;2022-09-21T18:35:23;13.60;99.90
51655;DHT22;37732;53.106;7.030;2022-09-21T18:38:01;13.50;99.90
51655;DHT22;37732;53.106;7.030;2022-09-21T18:40:55;13.40;99.90
51655;DHT22;37732;53.106;7.030;2022-09-21T18:46:08;13.20;99.90
51655;DHT22;37732;53.106;7.030;2022-09-21T18:49:00;13.10;99.90
51655;DHT22;37732;53.106;7.030;2022-09-21T18:51:45;13.10;99.90
51655;DHT22;37732;53.106;7.030;2022-09-21T18:56:52;12.90;99.90
51655;DHT22;37732;53.106;7.030;2022-09-21T18:59:18;12.90;99.90
51655;DHT22;37732;53.106;7.030;2022-09-21T19:01:45;12.80;99.90
51655;DHT22;37732;53.106;7.030;2022-09-21T19:04:12;12.70;99.90
51655;DHT22;37732;53.106;7.030;2022-09-21T19:06:44;12.70;99.90
51655;DHT22;37732;53.106;7.030;2022-09-21T19:18:18;12.30;99.90
51655;DHT22;37732;53.106;7.030;2022-09-21T19:27:08;12.00;99.90
51655;DHT22;37732;53.106;7.030;2022-09-21T19:29:54;11.90;99.90
51655;DHT22;37732;53.106;7.030;2022-09-21T19:32:50;11.90;99.90
51655;DHT22;37732;53.106;7.030;2022-09-21T19:37:50;11.80;99.90
51655;DHT22;37732;53.106;7.030;2022-09-21T19:40:18;11.70;99.90
51655;DHT22;37732;53.106;7.030;2022-09-21T19:43:47;11.70;99.90
51655;DHT22;37732;53.106;7.030;2022-09-21T19:48:41;11.60;99.90
51655;DHT22;37732;53.106;7.030;2022-09-21T19:53:48;11.60;99.90
51655;DHT22;37732;53.106;7.030;2022-09-21T19:56:38;11.50;99.90
51655;DHT22;37732;53.106;7.030;2022-09-21T19:59:27;11.50;99.90
51655;DHT22;37732;53.106;7.030;2022-09-21T20:02:30;11.40;99.90
51655;DHT22;37732;53.106;7.030;2022-09-21T20:05:18;11.40;99.90
51655;DHT22;37732;53.106;7.030;2022-09-21T20:15:54;11.10;99.90
51655;DHT22;37732;53.106;7.030;2022-09-21T20:18:51;11.10;99.90
51655;DHT22;37732;53.106;7.030;2022-09-21T20:21:21;11.10;99.90
51655;DHT22;37732;53.106;7.030;2022-09-21T20:23:52;11.00;99.90
51655;DHT22;37732;53.106;7.030;2022-09-21T20:26:25;10.90;99.90
51655;DHT22;37732;53.106;7.030;2022-09-21T20:28:52;10.90;99.90
51655;DHT22;37732;53.106;7.030;2022-09-21T20:31:23;10.90;99.90
51655;DHT22;37732;53.106;7.030;2022-09-21T20:33:49;11.50;99.90
51655;DHT22;37732;53.106;7.030;2022-09-21T20:36:15;11.80;99.90
51655;DHT22;37732;53.106;7.030;2022-09-21T20:38:41;10.70;99.90
51655;DHT22;37732;53.106;7.030;2022-09-21T20:41:13;10.90;99.90
51655;DHT22;37732;53.106;7.030;2022-09-21T20:43:40;11.40;99.90
51655;DHT22;37732;53.106;7.030;2022-09-21T20:46:07;10.40;99.90
51655;DHT22;37732;53.106;7.030;2022-09-21T20:48:33;10.90;99.90
51655;DHT22;37732;53.106;7.030;2022-09-21T20:51:01;10.60;99.90
51655;DHT22;37732;53.106;7.030;2022-09-21T20:53:29;10.70;99.90
51655;DHT22;37732;53.106;7.030;2022-09-21T20:55:56;10.20;99.90
51655;DHT22;37732;53.106;7.030;2022-09-21T20:58:23;10.20;99.90
51655;DHT22;37732;53.106;7.030;2022-09-21T21:00:52;10.20;99.90
51655;DHT22;37732;53.106;7.030;2022-09-21T21:03:18;10.20;99.90
51655;DHT22;37732;53.106;7.030;2022-09-21T21:05:44;10.20;99.90
51655;DHT22;37732;53.106;7.030;2022-09-21T21:08:10;10.70;99.90
51655;DHT22;37732;53.106;7.030;2022-09-21T21:10:36;10.20;99.90